Tucson, AZ

5:26 AM MST on October 02, 2014 (GMT -0700)
Sun City Oro Valley | Change Station
CLOSE
Current Station
Personal Weather Station
Location: Oro Valley, AZ
Elevation: 3041 ft
Nearby Weather Stations

Elev 3041 ft 32.47 °N, 110.95 °W | Updated 160 days ago

Clear
Clear
61 °F
Feels Like 61 °F
N
7
Wind Variable Wind from ESE
Gusts 10 mph

Today
High -- | Low -- °F
--% Chance of Precip.
Yesterday
High -- | Low -- °F
Precip. -- in
6:18 AM 6:07 PM
First Quarter, 58% visible
Pressure 29.89 in
Visibility 10.0 miles
Clouds Clear
Dew Point 40 °F
Humidity 45%
Rainfall -999.00 in
Snow Depth 0 in , 1 in , 0 in
UV 0 out of 12
Pollen 6.20 out of 12
Air Quality Not available.
Flu Activity Not available.
METAR KDMA 021158Z AUTO 14005KT 10SM CLR 15/05 A3000 RMK AO2 SLP122 T01540054 10195 20154 52010 $

More Conditions Fewer Conditions

Pressure 29.89 in
Visibility 10.0 miles
Clouds Clear
Dew Point 40 °F
Humidity 45%
Rainfall -999.00 in
Snow Depth 0 in , 1 in , 0 in
UV 0 out of 12
Pollen 6.20 out of 12
Air Quality Not available.
Flu Activity Not available.
METAR KDMA 021158Z AUTO 14005KT 10SM CLR 15/05 A3000 RMK AO2 SLP122 T01540054 10195 20154 52010 $

More Conditions Fewer Conditions

10-Day Weather Forecast

Almanac

Astronomy

Oct. 02, 2014 Rise Set
Actual Time 6:18 AM MST 6:07 PM MST
Civil Twilight 5:54 AM MST 6:31 PM MST
Nautical Twilight 5:25 AM MST 7:00 PM MST
Astronomical Twilight 4:56 AM MST 7:28 PM MST
Moon 1:59 PM MST No Moon Set
Length of Visible Light 12h 37m
Length of Day
11h 48m
Tomorrow will be 1m 59s shorter.
First Quarter, 58% of the Moon is Illuminated
Today
First Quarter
Oct 8
Full
Oct 15
Last Quarter
Oct 23
New
Oct 30
First Quarter

Today's Extremes

State Highs State Lows

Community

WunderPhotos

Upload Photos

1,758,223 photos uploaded!

WunderBlogs® & News

Nearby

Snow Depth

Station Depth Elevation
Mormon Mountain 0 in 7500 ft
Promontory 1 in 7930 ft
Fry 0 in 7200 ft
Heber 0 in 7640 ft
Workman Creek 1 in 6900 ft

Earthquake Activity

City Distance Mag. Time & Date
No recent earthquake activity has been reported nearby.
Minimum magnitude displayed is 2.5.

Coastal Water Temperatures

Place Temperature
No Stations Reporting

Nearby Weather Stations